New Ulm, Minnesota
Current Conditions -  °F | °C
As of 3:34 PM on Saturday 25 Oct 2014 (Local Time) from KULM Reporting Station
Clear Clear  
Wind Chill: 63°   Ceiling: Unl
Heat Index: 63°   Visibility: 10mi
Dew Point: 34°   Wind: 14mph
Humidity: 34%   Direction: 300°WNW
Pressure: 30.08"   Gusts: 18mph
Location:  44.31°N, 94.46°W
Report Text: KULM 252034Z AUTO 30012G16KT 10SM CLR 17/01 A3008 RMK AO2
Loading
Personal Weather Stations






























Interactive Weather Map
Tropical Storm Tracking
New forecast layout! Learn more

10-Day Weather Forecast

Advertisements
Track Severe Weather on mobile